CheckWX is a tool to help pilots better visualize weather data.  It is not intended as a substitute for an official pre-flight weather briefing.

06:16:33 UTC

KASW METAR
Warsaw Municipal Airport
Warsaw, Indiana, USA
Current

22 mins ago

KASW 230555Z AUTO 18007KT 157V217 10SM CLR 17/08 A2989 RMK AO2
Observed
Apr-23 @ 05:55 UTC
Wind
  • 180° at 7 KTS
Visibility
10 SM
Flight Rules
VFR
Cloud Levels
  • Clear skies
Temperature
17°C / 63°F
Dewpoint
C / 46°F
Humidity
56%
Altimeter
29.89" Hg
Pressure
1012.22 hPa
Previous

42 mins ago

KASW 230535Z AUTO 17007G14KT 10SM CLR 17/08 A2990 RMK AO2
Observed
Apr-23 @ 05:35 UTC
Wind
  • 170° at 7 KTS
  • Gusting to 14 KTS
Visibility
10 SM
Flight Rules
VFR
Cloud Levels
  • Clear skies
Temperature
17°C / 63°F
Dewpoint
C / 46°F
Humidity
56%
Altimeter
29.9" Hg
Pressure
1012.52 hPa
Previous

1 hour ago

KASW 230515Z AUTO 16008KT 10SM SCT075 SCT100 17/08 A2993 RMK AO2
Observed
Apr-23 @ 05:15 UTC
Wind
  • 160° at 8 KTS
Visibility
10 SM
Flight Rules
VFR
Cloud Levels
  • Scattered at 7,500' AGL
  • Scattered at 10,000' AGL
Temperature
17°C / 63°F
Dewpoint
C / 46°F
Humidity
56%
Altimeter
29.93" Hg
Pressure
1013.52 hPa